createdAt,value
2017-11-28T00:00:48.405Z,81.76
2017-11-28T00:03:17.521Z,82.26
2017-11-28T00:05:45.840Z,82.08
2017-11-28T00:08:14.159Z,81.63
2017-11-28T00:10:42.757Z,81.40
2017-11-28T00:13:11.582Z,81.57
2017-11-28T00:15:39.930Z,82.08
2017-11-28T00:18:08.501Z,82.07
2017-11-28T00:20:36.817Z,81.68
2017-11-28T00:23:05.140Z,81.24
2017-11-28T00:25:33.490Z,80.18
2017-11-28T00:28:01.802Z,80.57
2017-11-28T00:30:30.098Z,80.34
2017-11-28T00:32:58.452Z,79.73
2017-11-28T00:35:26.800Z,79.31
2017-11-28T00:37:55.126Z,79.44
2017-11-28T00:40:23.826Z,79.60
2017-11-28T00:42:52.139Z,79.45
2017-11-28T00:45:20.459Z,79.49
2017-11-28T00:47:48.774Z,78.37
2017-11-28T00:50:17.889Z,80.99
2017-11-28T00:52:46.212Z,80.82
2017-11-28T00:55:14.557Z,80.96
2017-11-28T00:57:42.883Z,81.24
2017-11-28T01:00:11.187Z,81.35
2017-11-28T01:02:40.789Z,81.67
2017-11-28T01:05:09.907Z,81.60
2017-11-28T01:07:38.296Z,81.61
2017-11-28T01:10:06.623Z,81.69
2017-11-28T01:12:35.048Z,81.02
2017-11-28T01:15:03.397Z,80.84
2017-11-28T01:17:31.771Z,80.53
2017-11-28T01:20:00.085Z,80.42
2017-11-28T01:22:28.409Z,81.23
2017-11-28T01:24:57.115Z,80.89
2017-11-28T01:27:25.465Z,80.74
2017-11-28T01:29:53.777Z,80.15
2017-11-28T01:32:22.910Z,80.50
2017-11-28T01:34:51.230Z,79.56
2017-11-28T01:37:19.558Z,80.65
2017-11-28T01:39:47.902Z,78.18
2017-11-28T01:42:16.207Z,78.59
2017-11-28T01:44:44.535Z,78.64
2017-11-28T01:47:12.951Z,78.36
2017-11-28T01:49:41.276Z,78.66
2017-11-28T01:52:09.577Z,79.68
2017-11-28T01:54:37.938Z,80.37
2017-11-28T01:57:06.267Z,79.80
2017-11-28T01:59:34.590Z,79.97
2017-11-28T02:02:02.916Z,80.33
2017-11-28T02:04:32.093Z,79.26
2017-11-28T02:07:00.421Z,79.96
2017-11-28T02:09:28.832Z,80.24
2017-11-28T02:11:57.177Z,79.60
2017-11-28T02:14:26.278Z,80.08
2017-11-28T02:16:54.617Z,81.09
2017-11-28T02:19:23.009Z,81.01
2017-11-28T02:21:52.128Z,80.89
2017-11-28T02:24:21.214Z,81.32
2017-11-28T02:26:50.284Z,81.39
2017-11-28T02:29:18.627Z,82.09
2017-11-28T02:31:57.743Z,81.90
2017-11-28T02:34:26.055Z,82.03
2017-11-28T02:36:54.413Z,82.36
2017-11-28T02:39:22.786Z,83.44
2017-11-28T02:41:51.078Z,82.48
2017-11-28T02:44:20.295Z,82.28
2017-11-28T02:46:48.643Z,82.57
2017-11-28T02:52:23.554Z,82.72
2017-11-28T02:55:11.170Z,82.41
2017-11-28T02:57:41.065Z,82.74
2017-11-28T03:00:10.190Z,82.44
2017-11-28T03:02:39.296Z,83.44
2017-11-28T03:05:08.399Z,83.14
2017-11-28T03:07:39.634Z,82.87
2017-11-28T03:10:17.437Z,83.26
2017-11-28T03:12:51.959Z,83.31
2017-11-28T03:18:23.362Z,83.48
2017-11-28T03:20:58.461Z,83.98
2017-11-28T03:26:45.466Z,82.92
2017-11-28T03:29:17.503Z,83.04
2017-11-28T03:31:45.826Z,82.88
2017-11-28T03:34:17.973Z,82.66
2017-11-28T03:36:46.363Z,82.52
2017-11-28T03:39:14.772Z,82.05
2017-11-28T03:41:43.191Z,81.88
2017-11-28T03:47:24.722Z,82.53
2017-11-28T03:49:53.784Z,81.92
2017-11-28T03:52:22.082Z,82.21
2017-11-28T03:54:50.434Z,81.55
2017-11-28T03:57:18.751Z,82.12
2017-11-28T03:59:47.095Z,81.99
2017-11-28T04:02:15.479Z,81.96
2017-11-28T04:04:43.889Z,82.40
2017-11-28T04:07:12.255Z,82.65
2017-11-28T04:09:40.715Z,82.74
2017-11-28T04:12:09.043Z,82.38
2017-11-28T04:14:39.033Z,82.31
2017-11-28T04:17:07.687Z,82.20
2017-11-28T04:19:35.987Z,81.83
2017-11-28T04:22:05.189Z,81.39
2017-11-28T04:24:33.548Z,81.26
2017-11-28T04:27:01.833Z,82.42
2017-11-28T04:29:30.185Z,81.87
2017-11-28T04:31:58.872Z,81.34
2017-11-28T04:34:29.845Z,80.76
2017-11-28T04:36:58.155Z,81.11
2017-11-28T04:39:26.532Z,81.08
2017-11-28T04:41:54.925Z,81.40
2017-11-28T04:44:23.285Z,81.69
2017-11-28T04:46:51.662Z,81.63
2017-11-28T04:49:20.002Z,81.03
2017-11-28T04:51:49.226Z,80.44
2017-11-28T04:54:17.675Z,81.16
2017-11-28T04:56:46.811Z,81.96
2017-11-28T04:59:15.887Z,81.37
2017-11-28T05:01:44.223Z,81.37
2017-11-28T05:04:13.281Z,81.53
2017-11-28T05:06:41.594Z,81.27
2017-11-28T05:09:10.728Z,80.89
2017-11-28T05:11:39.137Z,81.47
2017-11-28T05:14:07.448Z,81.19
2017-11-28T05:16:36.691Z,81.22
2017-11-28T05:19:05.069Z,81.37
2017-11-28T05:21:33.411Z,80.23
2017-11-28T05:24:01.781Z,79.89
2017-11-28T05:26:30.875Z,80.19
2017-11-28T05:28:59.949Z,80.61
2017-11-28T05:31:28.329Z,81.21
2017-11-28T05:33:56.659Z,81.42
2017-11-28T05:36:24.970Z,81.22
2017-11-28T05:38:53.607Z,81.23
2017-11-28T05:41:21.972Z,81.00
2017-11-28T05:43:51.112Z,80.88
2017-11-28T05:46:20.309Z,80.67
2017-11-28T05:48:48.616Z,80.71
2017-11-28T05:51:16.969Z,80.75
2017-11-28T05:53:45.343Z,81.50
2017-11-28T05:56:14.614Z,81.41
2017-11-28T06:01:13.692Z,80.87
2017-11-28T06:03:42.036Z,80.34
2017-11-28T06:06:10.408Z,80.40
2017-11-28T06:08:39.307Z,80.32
2017-11-28T06:11:08.433Z,80.02
2017-11-28T06:13:36.725Z,79.39
2017-11-28T06:16:05.106Z,80.66
2017-11-28T06:18:33.470Z,80.65
2017-11-28T06:21:02.375Z,80.12
2017-11-28T06:23:30.841Z,80.16
2017-11-28T06:25:59.198Z,80.38
2017-11-28T06:28:27.544Z,79.29
2017-11-28T06:30:55.928Z,78.50
2017-11-28T06:33:24.265Z,78.17
2017-11-28T06:35:52.642Z,78.67
2017-11-28T06:38:20.999Z,78.82
2017-11-28T06:40:49.363Z,78.74
2017-11-28T06:43:17.674Z,78.92
2017-11-28T06:45:46.877Z,78.99
2017-11-28T06:48:15.220Z,78.25
2017-11-28T06:50:43.549Z,78.01
2017-11-28T06:53:12.110Z,78.21
2017-11-28T06:55:41.526Z,78.20
2017-11-28T06:58:09.933Z,78.62
2017-11-28T07:00:38.270Z,78.06
2017-11-28T07:03:06.564Z,78.27
2017-11-28T07:05:34.881Z,78.11
2017-11-28T07:08:03.288Z,77.41
2017-11-28T07:10:32.360Z,77.24
2017-11-28T07:13:02.929Z,77.59
2017-11-28T07:15:31.259Z,77.30
2017-11-28T07:17:59.602Z,76.93
2017-11-28T07:20:28.026Z,77.42
2017-11-28T07:22:56.401Z,77.47
2017-11-28T07:25:24.737Z,78.11
2017-11-28T07:27:54.280Z,77.28
2017-11-28T07:30:23.866Z,76.92
2017-11-28T07:32:52.925Z,77.17
2017-11-28T07:35:21.259Z,78.06
2017-11-28T07:37:49.637Z,78.03
2017-11-28T07:40:17.969Z,78.08
2017-11-28T07:42:46.349Z,78.17
2017-11-28T07:45:14.694Z,77.89
2017-11-28T07:47:43.030Z,77.50
2017-11-28T07:50:11.456Z,77.35
2017-11-28T07:52:40.862Z,77.50
2017-11-28T07:55:09.228Z,77.18
2017-11-28T07:57:38.114Z,77.64
2017-11-28T08:00:06.495Z,77.50
2017-11-28T08:02:34.863Z,77.33
2017-11-28T08:05:04.003Z,77.64
2017-11-28T08:07:32.345Z,77.95
2017-11-28T08:10:01.483Z,77.21
2017-11-28T08:12:29.835Z,77.02
2017-11-28T08:14:58.230Z,76.71
2017-11-28T08:17:26.587Z,76.22
2017-11-28T08:19:55.158Z,76.24
2017-11-28T08:22:24.488Z,76.49
2017-11-28T08:24:52.807Z,76.05
2017-11-28T08:27:21.118Z,75.63
2017-11-28T08:29:49.527Z,77.15
2017-11-28T08:32:17.901Z,77.37
2017-11-28T08:34:46.230Z,77.50
2017-11-28T08:37:14.931Z,78.10
2017-11-28T08:39:44.038Z,77.82
2017-11-28T08:42:12.386Z,76.75
2017-11-28T08:44:41.648Z,77.12
2017-11-28T08:47:09.973Z,77.56
2017-11-28T08:49:39.202Z,76.91
2017-11-28T08:52:07.553Z,76.40
2017-11-28T08:54:35.888Z,76.94
2017-11-28T08:57:04.295Z,77.16
2017-11-28T08:59:32.941Z,77.56
2017-11-28T09:02:01.262Z,77.38
2017-11-28T09:04:29.603Z,76.74
2017-11-28T09:06:57.988Z,76.39
2017-11-28T09:09:27.355Z,75.96
2017-11-28T09:11:56.469Z,74.77
2017-11-28T09:14:24.843Z,74.58
2017-11-28T09:16:53.189Z,74.48
2017-11-28T09:19:21.513Z,75.02
2017-11-28T09:21:50.155Z,76.06
2017-11-28T09:24:19.274Z,75.76
2017-11-28T09:26:47.634Z,75.15
2017-11-28T09:29:16.007Z,74.84
2017-11-28T09:31:45.375Z,74.64
2017-11-28T09:34:14.587Z,74.45
2017-11-28T09:36:42.921Z,73.31
2017-11-28T09:39:11.249Z,73.91
2017-11-28T09:41:39.595Z,73.56
2017-11-28T09:44:07.990Z,74.43
2017-11-28T09:46:36.342Z,74.86
2017-11-28T09:49:04.709Z,74.22
2017-11-28T09:51:33.045Z,75.22
2017-11-28T09:54:01.410Z,75.84
2017-11-28T09:56:29.737Z,76.07
2017-11-28T09:58:58.067Z,76.17
2017-11-28T10:01:26.397Z,74.83
2017-11-28T10:03:54.723Z,75.15
2017-11-28T10:06:23.250Z,75.52
2017-11-28T10:08:52.340Z,75.36
2017-11-28T10:11:21.426Z,75.31
2017-11-28T10:13:50.546Z,74.20
2017-11-28T10:16:18.864Z,74.99
2017-11-28T10:18:47.210Z,74.25
2017-11-28T10:21:15.560Z,73.93
2017-11-28T10:23:44.658Z,73.61
2017-11-28T10:26:13.760Z,73.19
2017-11-28T10:28:43.144Z,73.53
2017-11-28T10:31:11.469Z,73.52
2017-11-28T10:33:39.766Z,74.45
2017-11-28T10:36:08.107Z,73.87
2017-11-28T10:38:36.468Z,73.00
2017-11-28T10:41:05.631Z,72.02
2017-11-28T10:43:33.993Z,73.44
2017-11-28T10:46:02.320Z,72.41
2017-11-28T10:48:30.673Z,72.08
2017-11-28T10:50:59.077Z,72.63
2017-11-28T10:53:27.398Z,72.78
2017-11-28T10:55:55.698Z,71.95
2017-11-28T10:58:24.038Z,72.57
2017-11-28T11:00:53.093Z,71.84
2017-11-28T11:03:21.548Z,72.39
2017-11-28T11:05:50.687Z,72.84
2017-11-28T11:08:19.030Z,72.49
2017-11-28T11:10:47.330Z,72.81
2017-11-28T11:13:15.741Z,72.47
2017-11-28T11:15:44.830Z,72.19
2017-11-28T11:18:13.903Z,72.74
2017-11-28T11:20:42.245Z,73.81
2017-11-28T11:23:10.555Z,72.13
2017-11-28T11:25:38.853Z,72.58
2017-11-28T11:28:07.194Z,72.85
2017-11-28T11:30:35.510Z,71.82
2017-11-28T11:33:04.599Z,72.86
2017-11-28T11:35:33.113Z,72.25
2017-11-28T11:38:01.442Z,72.23
2017-11-28T11:40:29.777Z,72.08
2017-11-28T11:42:58.110Z,70.74
2017-11-28T11:45:26.444Z,73.13
2017-11-28T11:47:54.796Z,73.61
2017-11-28T11:50:23.135Z,73.24
2017-11-28T11:52:51.455Z,74.15
2017-11-28T11:55:19.797Z,73.61
2017-11-28T11:57:48.343Z,75.00
2017-11-28T12:00:16.643Z,74.32
2017-11-28T12:02:44.969Z,74.51
2017-11-28T12:05:13.365Z,74.41
2017-11-28T12:07:41.690Z,74.14
2017-11-28T12:10:10.022Z,74.71
2017-11-28T12:12:40.086Z,75.24
2017-11-28T12:15:10.253Z,75.55
2017-11-28T12:17:43.129Z,75.37
2017-11-28T12:20:11.956Z,74.72
2017-11-28T12:22:43.711Z,73.52
2017-11-28T12:25:14.573Z,74.41
2017-11-28T12:27:42.924Z,72.69
2017-11-28T12:30:11.357Z,72.04
2017-11-28T12:32:39.647Z,72.13
2017-11-28T12:35:09.424Z,71.60
2017-11-28T12:37:38.277Z,71.37
2017-11-28T12:40:06.614Z,72.08
2017-11-28T12:42:34.923Z,70.87
2017-11-28T12:45:03.266Z,70.62
2017-11-28T12:47:31.613Z,71.26
2017-11-28T12:49:59.913Z,71.75
2017-11-28T12:52:28.328Z,71.57
2017-11-28T12:54:56.669Z,71.56
2017-11-28T12:57:25.159Z,72.76
2017-11-28T12:59:53.667Z,73.30
2017-11-28T13:02:22.067Z,76.00
2017-11-28T13:04:50.390Z,75.53
2017-11-28T13:07:18.752Z,75.15
2017-11-28T13:09:47.262Z,73.89
2017-11-28T13:12:15.626Z,75.37
2017-11-28T13:14:45.024Z,75.22
2017-11-28T13:17:13.545Z,74.06
2017-11-28T13:19:41.949Z,71.18
2017-11-28T13:22:10.470Z,68.55
2017-11-28T13:24:38.778Z,68.90
2017-11-28T13:27:07.851Z,71.33
2017-11-28T13:29:37.484Z,73.00
2017-11-28T13:32:05.803Z,72.11
2017-11-28T13:34:34.137Z,73.09
2017-11-28T13:37:03.249Z,72.69
2017-11-28T13:39:31.591Z,72.41
2017-11-28T13:41:59.948Z,71.95
2017-11-28T13:44:29.260Z,71.60
2017-11-28T13:46:57.602Z,71.36
2017-11-28T13:49:25.925Z,71.82
2017-11-28T13:51:54.292Z,72.31
2017-11-28T13:54:22.617Z,73.05
2017-11-28T13:56:50.945Z,72.25
2017-11-28T13:59:19.286Z,71.89
2017-11-28T14:01:47.625Z,72.15
2017-11-28T14:04:15.956Z,71.60
2017-11-28T14:06:44.563Z,71.10
2017-11-28T14:09:12.863Z,70.70
2017-11-28T14:11:41.156Z,69.96
2017-11-28T14:14:10.271Z,70.20
2017-11-28T14:16:39.665Z,70.76
2017-11-28T14:19:08.020Z,71.68
2017-11-28T14:21:46.659Z,71.58
2017-11-28T14:27:21.365Z,71.75
2017-11-28T14:29:53.116Z,72.48
2017-11-28T14:32:39.911Z,71.95
2017-11-28T14:35:18.188Z,72.14
2017-11-28T14:37:47.846Z,72.30
2017-11-28T14:40:17.905Z,71.54
2017-11-28T14:42:47.177Z,72.11
2017-11-28T14:45:15.565Z,72.31
2017-11-28T14:47:44.722Z,71.96
2017-11-28T14:50:13.094Z,71.57
2017-11-28T14:52:45.353Z,71.94
2017-11-28T14:55:20.087Z,72.76
2017-11-28T14:57:48.912Z,72.39
2017-11-28T15:00:22.573Z,72.20
2017-11-28T15:05:58.922Z,71.58
2017-11-28T15:08:40.702Z,71.42
2017-11-28T15:14:17.562Z,72.32
2017-11-28T15:16:51.407Z,72.77
2017-11-28T15:22:23.401Z,73.34
2017-11-28T15:24:57.409Z,73.45
2017-11-28T15:27:27.357Z,73.63
2017-11-28T15:29:56.496Z,74.31
2017-11-28T15:32:25.248Z,73.55
2017-11-28T15:34:53.720Z,72.88
2017-11-28T15:37:22.084Z,73.28
2017-11-28T15:39:50.440Z,74.17
2017-11-28T15:42:18.755Z,74.25
2017-11-28T15:44:47.069Z,73.56
2017-11-28T15:47:15.463Z,72.91
2017-11-28T15:49:43.833Z,74.45
2017-11-28T15:52:12.170Z,74.56
2017-11-28T15:54:40.791Z,74.51
2017-11-28T15:57:09.127Z,75.05
2017-11-28T15:59:37.432Z,74.84
2017-11-28T16:02:05.854Z,74.71
2017-11-28T16:04:34.946Z,75.69
2017-11-28T16:07:03.310Z,76.00
2017-11-28T16:09:31.662Z,75.82
2017-11-28T16:12:00.004Z,76.46
2017-11-28T16:14:29.106Z,76.99
2017-11-28T16:16:57.775Z,76.37
2017-11-28T16:19:26.098Z,76.11
2017-11-28T16:21:55.222Z,76.67
2017-11-28T16:24:23.582Z,77.14
2017-11-28T16:26:51.934Z,76.68
2017-11-28T16:29:21.050Z,76.41
2017-11-28T16:31:50.185Z,76.25
2017-11-28T16:34:18.532Z,76.51
2017-11-28T16:36:46.858Z,77.10
2017-11-28T16:39:15.286Z,76.43
2017-11-28T16:41:43.629Z,76.37
2017-11-28T16:44:11.939Z,76.96
2017-11-28T16:46:41.067Z,77.13
2017-11-28T16:49:09.424Z,76.21
2017-11-28T16:51:37.759Z,75.40
2017-11-28T16:54:06.105Z,75.81
2017-11-28T16:56:34.452Z,76.11
2017-11-28T16:59:03.606Z,76.00
2017-11-28T17:01:32.191Z,75.58
2017-11-28T17:04:00.574Z,74.97
2017-11-28T17:06:28.918Z,75.32
2017-11-28T17:08:57.580Z,75.42
2017-11-28T17:11:25.982Z,75.62
2017-11-28T17:13:54.435Z,75.43
2017-11-28T17:16:23.205Z,74.93
2017-11-28T17:18:51.702Z,75.11
2017-11-28T17:21:20.916Z,74.46
2017-11-28T17:23:49.520Z,74.12
2017-11-28T17:26:18.068Z,73.35
2017-11-28T17:28:46.645Z,72.83
2017-11-28T17:31:16.629Z,71.82
2017-11-28T17:33:45.246Z,71.78
2017-11-28T17:36:13.672Z,72.03
2017-11-28T17:38:42.129Z,71.68
2017-11-28T17:41:10.455Z,72.35
2017-11-28T17:43:38.780Z,71.70
2017-11-28T17:46:08.045Z,71.48
2017-11-28T17:48:36.347Z,72.29
2017-11-28T17:51:04.718Z,72.97
2017-11-28T17:53:33.088Z,72.79
2017-11-28T17:56:01.415Z,73.17
2017-11-28T17:58:29.758Z,72.95
2017-11-28T18:00:58.107Z,72.93
2017-11-28T18:03:27.261Z,72.79
2017-11-28T18:05:55.957Z,71.70
2017-11-28T18:08:24.347Z,71.01
2017-11-28T18:10:52.654Z,71.08
2017-11-28T18:13:21.082Z,71.15
2017-11-28T18:15:49.412Z,71.37
2017-11-28T18:18:18.496Z,71.31
2017-11-28T18:20:47.635Z,71.17
2017-11-28T18:23:16.782Z,70.70
2017-11-28T18:25:45.128Z,70.60
2017-11-28T18:28:13.494Z,71.36
2017-11-28T18:30:42.902Z,70.80
2017-11-28T18:33:11.315Z,71.50
2017-11-28T18:35:39.656Z,71.65
2017-11-28T18:38:08.031Z,71.84
2017-11-28T18:40:37.162Z,72.10
2017-11-28T18:43:05.524Z,71.43
2017-11-28T18:45:34.385Z,70.86
2017-11-28T18:48:03.664Z,71.32
2017-11-28T18:50:32.032Z,71.09
2017-11-28T18:53:00.453Z,70.64
2017-11-28T18:55:28.814Z,71.31
2017-11-28T18:57:57.187Z,71.45
2017-11-28T19:00:27.122Z,71.07
2017-11-28T19:02:55.472Z,71.21
2017-11-28T19:05:23.900Z,70.99
2017-11-28T19:07:52.239Z,71.14
2017-11-28T19:10:20.832Z,70.72
2017-11-28T19:12:49.212Z,69.67
2017-11-28T19:15:18.384Z,70.14
2017-11-28T19:17:46.761Z,71.31
2017-11-28T19:20:15.355Z,71.43
2017-11-28T19:22:43.822Z,71.00
2017-11-28T19:25:12.189Z,71.32
2017-11-28T19:27:40.655Z,71.23
2017-11-28T19:30:09.241Z,71.93
2017-11-28T19:32:37.650Z,71.20
2017-11-28T19:35:05.997Z,71.35
2017-11-28T19:37:34.778Z,72.04
2017-11-28T19:40:03.125Z,72.18
2017-11-28T19:42:31.484Z,72.79
2017-11-28T19:44:59.858Z,72.76
2017-11-28T19:47:28.211Z,72.11
2017-11-28T19:49:56.585Z,71.83
2017-11-28T19:52:24.956Z,72.15
2017-11-28T19:54:53.290Z,71.70
2017-11-28T19:57:21.632Z,71.91
2017-11-28T19:59:50.341Z,71.36
2017-11-28T20:02:19.437Z,71.46
2017-11-28T20:04:47.767Z,70.92
2017-11-28T20:07:16.944Z,72.91
2017-11-28T20:09:45.269Z,72.17
2017-11-28T20:12:13.681Z,71.55
2017-11-28T20:14:42.056Z,70.98
2017-11-28T20:17:10.827Z,71.00
2017-11-28T20:19:39.164Z,71.37
2017-11-28T20:22:07.991Z,72.19
2017-11-28T20:24:36.334Z,72.35
2017-11-28T20:27:04.722Z,72.09
2017-11-28T20:29:33.857Z,73.03
2017-11-28T20:32:02.250Z,72.84
2017-11-28T20:34:30.582Z,73.71
2017-11-28T20:36:59.724Z,72.56
2017-11-28T20:39:28.062Z,72.49
2017-11-28T20:41:56.564Z,73.04
2017-11-28T20:44:25.018Z,73.66
2017-11-28T20:46:53.388Z,72.93
2017-11-28T20:49:28.139Z,73.82
2017-11-28T20:51:56.548Z,74.27
2017-11-28T20:54:24.853Z,73.63
2017-11-28T20:56:53.235Z,73.50
2017-11-28T20:59:21.594Z,72.42
2017-11-28T21:01:49.913Z,73.20
2017-11-28T21:04:19.257Z,72.73
2017-11-28T21:06:47.607Z,72.56
2017-11-28T21:09:16.891Z,72.43
2017-11-28T21:11:46.043Z,72.93
2017-11-28T21:14:14.624Z,72.56
2017-11-28T21:16:42.958Z,72.57
2017-11-28T21:19:12.124Z,72.91
2017-11-28T21:21:40.545Z,72.40
2017-11-28T21:24:09.246Z,72.54
2017-11-28T21:26:37.872Z,73.68
2017-11-28T21:29:06.249Z,73.69
2017-11-28T21:31:34.626Z,73.64
2017-11-28T21:34:03.030Z,73.64
2017-11-28T21:36:31.383Z,73.49
2017-11-28T21:38:59.807Z,73.61
2017-11-28T21:41:28.205Z,73.40
2017-11-28T21:43:56.541Z,72.06
2017-11-28T21:46:24.883Z,72.70
2017-11-28T21:48:53.364Z,72.93
2017-11-28T21:51:21.739Z,73.06
2017-11-28T21:53:50.077Z,73.26
2017-11-28T21:56:18.415Z,72.42
2017-11-28T21:58:47.506Z,73.17
2017-11-28T22:01:15.886Z,74.07
2017-11-28T22:03:44.267Z,73.36
2017-11-28T22:06:12.628Z,73.38
2017-11-28T22:08:42.454Z,73.63
2017-11-28T22:11:10.973Z,73.64
2017-11-28T22:13:40.072Z,73.60
2017-11-28T22:16:09.158Z,73.86
2017-11-28T22:18:37.545Z,74.40
2017-11-28T22:21:05.911Z,74.79
2017-11-28T22:23:34.259Z,75.03
2017-11-28T22:26:02.614Z,73.52
2017-11-28T22:28:31.623Z,74.82
2017-11-28T22:30:59.995Z,74.22
2017-11-28T22:33:28.501Z,73.90
2017-11-28T22:35:56.834Z,73.93
2017-11-28T22:38:25.905Z,73.95
2017-11-28T22:40:55.053Z,74.20
2017-11-28T22:43:24.442Z,74.72
2017-11-28T22:45:52.796Z,73.89
2017-11-28T22:48:21.954Z,73.29
2017-11-28T22:50:50.644Z,73.20
2017-11-28T22:53:18.956Z,74.53
2017-11-28T22:55:48.310Z,73.97
2017-11-28T22:58:16.658Z,74.55
2017-11-28T23:00:44.997Z,74.66
2017-11-28T23:03:13.380Z,73.77
2017-11-28T23:05:41.701Z,73.16
2017-11-28T23:08:10.032Z,73.29
2017-11-28T23:10:39.176Z,73.29
2017-11-28T23:13:07.506Z,73.64
2017-11-28T23:15:35.849Z,74.01
2017-11-28T23:18:04.312Z,74.71
2017-11-28T23:20:33.565Z,73.84
2017-11-28T23:23:01.900Z,73.00
2017-11-28T23:25:30.289Z,72.65
2017-11-28T23:27:58.924Z,72.41
2017-11-28T23:30:27.253Z,73.00
2017-11-28T23:32:55.618Z,72.75
2017-11-28T23:35:23.942Z,73.59
2017-11-28T23:37:52.265Z,74.43
2017-11-28T23:40:20.716Z,74.24
2017-11-28T23:42:49.033Z,74.02
2017-11-28T23:45:17.372Z,74.34
2017-11-28T23:47:45.734Z,74.62
2017-11-28T23:50:14.125Z,74.84
2017-11-28T23:52:42.442Z,74.56
2017-11-28T23:55:10.823Z,74.54
2017-11-28T23:57:39.140Z,74.70
